createdAt,value
2022-08-07T00:01:44.069Z,7.25
2022-08-07T00:04:24.603Z,4.65
2022-08-07T00:09:35.700Z,7.50
2022-08-07T00:12:02.428Z,6.43
2022-08-07T00:14:31.507Z,5.35
2022-08-07T00:20:02.619Z,5.72
2022-08-07T00:22:35.050Z,6.20
2022-08-07T00:27:52.684Z,7.25
2022-08-07T00:30:21.597Z,4.97
2022-08-07T00:35:35.296Z,6.50
2022-08-07T00:38:03.996Z,9.50
2022-08-07T00:44:00.694Z,4.90
2022-08-07T00:46:02.197Z,4.30
2022-08-07T00:48:32.033Z,6.32
2022-08-07T00:50:59.760Z,6.60
2022-08-07T00:56:13.746Z,6.75
2022-08-07T00:58:46.834Z,5.68
2022-08-07T01:01:17.555Z,8.05
2022-08-07T01:03:56.617Z,4.63
2022-08-07T01:06:28.089Z,4.57
2022-08-07T01:08:55.645Z,5.15
2022-08-07T01:12:26.539Z,5.05
2022-08-07T01:14:09.784Z,3.75
2022-08-07T01:16:37.259Z,5.72
2022-08-07T01:19:18.211Z,4.90
2022-08-07T01:21:47.474Z,3.67
2022-08-07T01:24:22.503Z,5.60
2022-08-07T01:27:03.728Z,4.03
2022-08-07T01:29:34.657Z,4.20
2022-08-07T01:32:05.245Z,4.45
2022-08-07T01:34:37.451Z,4.05
2022-08-07T01:37:05.830Z,6.10
2022-08-07T01:39:40.900Z,5.20
2022-08-07T01:42:40.263Z,5.28
2022-08-07T01:45:10.100Z,4.28
2022-08-07T01:48:20.459Z,4.47
2022-08-07T01:50:30.601Z,5.25
2022-08-07T01:52:58.626Z,5.90
2022-08-07T01:55:51.983Z,5.70
2022-08-07T01:58:28.887Z,5.63
2022-08-07T02:03:50.338Z,7.30
2022-08-07T02:09:03.688Z,3.45
2022-08-07T02:12:03.236Z,4.03
2022-08-07T02:14:40.551Z,4.28
2022-08-07T02:17:09.020Z,4.20
2022-08-07T02:20:07.750Z,4.50
2022-08-07T02:22:25.850Z,5.07
2022-08-07T02:24:54.055Z,4.05
2022-08-07T02:27:22.249Z,5.82
2022-08-07T02:29:54.110Z,5.22
2022-08-07T02:32:29.990Z,3.88
2022-08-07T02:34:58.358Z,3.63
2022-08-07T02:37:26.269Z,4.90
2022-08-07T02:40:11.662Z,5.50
2022-08-07T02:42:41.742Z,4.80
2022-08-07T02:45:57.606Z,4.90
2022-08-07T02:48:01.625Z,6.13
2022-08-07T02:50:33.098Z,4.15
2022-08-07T02:53:05.424Z,7.80
2022-08-07T02:56:03.291Z,5.60
2022-08-07T02:58:23.211Z,4.72
2022-08-07T03:06:25.586Z,5.20
2022-08-07T03:08:59.356Z,6.90
2022-08-07T03:11:28.215Z,6.25
2022-08-07T03:13:57.704Z,9.27
2022-08-07T03:16:29.054Z,6.65
2022-08-07T03:18:58.359Z,4.85
2022-08-07T03:21:25.346Z,6.90
2022-08-07T03:24:20.054Z,8.88
2022-08-07T03:26:43.059Z,5.32
2022-08-07T03:29:18.633Z,4.00
2022-08-07T03:31:49.992Z,12.00
2022-08-07T03:34:21.973Z,6.55
2022-08-07T03:42:16.535Z,5.72
2022-08-07T03:44:47.216Z,6.30
2022-08-07T03:50:03.922Z,5.00
2022-08-07T03:52:32.013Z,6.43
2022-08-07T03:55:07.061Z,4.00
2022-08-07T03:58:34.730Z,4.75
2022-08-07T04:00:30.157Z,6.80
2022-08-07T04:02:59.020Z,7.47
2022-08-07T04:05:39.679Z,5.80
2022-08-07T04:08:11.503Z,7.63
2022-08-07T04:10:39.633Z,6.20
2022-08-07T04:13:15.403Z,6.53
2022-08-07T04:15:42.766Z,5.38
2022-08-07T04:18:57.491Z,5.40
2022-08-07T04:21:07.212Z,5.72
2022-08-07T04:26:21.802Z,6.10
2022-08-07T04:28:48.823Z,6.13
2022-08-07T04:31:19.753Z,5.15
2022-08-07T04:36:27.675Z,6.40
2022-08-07T04:38:58.191Z,6.72
2022-08-07T04:41:24.857Z,6.65
2022-08-07T04:44:13.118Z,6.28
2022-08-07T04:47:04.535Z,7.00
2022-08-07T04:49:39.773Z,5.22
2022-08-07T04:52:08.986Z,7.22
2022-08-07T04:54:50.569Z,5.18
2022-08-07T04:58:11.090Z,6.57
2022-08-07T05:03:17.203Z,5.07
2022-08-07T05:06:16.326Z,4.25
2022-08-07T05:09:08.127Z,6.90
2022-08-07T05:11:56.862Z,5.00
2022-08-07T05:14:56.175Z,5.45
2022-08-07T05:20:10.003Z,5.15
2022-08-07T05:22:38.484Z,5.35
2022-08-07T05:25:08.727Z,5.90
2022-08-07T05:30:29.926Z,5.75
2022-08-07T05:32:57.661Z,4.75
2022-08-07T05:35:33.583Z,6.55
2022-08-07T05:38:09.984Z,6.28
2022-08-07T05:40:50.749Z,8.25
2022-08-07T05:43:19.342Z,6.15
2022-08-07T05:46:06.222Z,4.90
2022-08-07T05:48:33.129Z,5.57
2022-08-07T05:51:01.633Z,7.03
2022-08-07T05:56:13.842Z,5.65
2022-08-07T06:01:26.475Z,4.82
2022-08-07T06:04:05.209Z,5.40
2022-08-07T06:06:33.609Z,5.50
2022-08-07T06:09:01.247Z,3.88
2022-08-07T06:14:20.629Z,6.82
2022-08-07T06:16:56.398Z,6.25
2022-08-07T06:19:49.954Z,6.68
2022-08-07T06:22:23.589Z,5.90
2022-08-07T06:24:57.917Z,7.18
2022-08-07T06:27:44.202Z,6.57
2022-08-07T06:32:56.176Z,12.77
2022-08-07T06:38:04.537Z,6.80
2022-08-07T06:40:46.092Z,6.25
2022-08-07T06:43:21.436Z,9.43
2022-08-07T06:45:49.326Z,8.77
2022-08-07T06:48:16.279Z,7.10
2022-08-07T06:50:52.968Z,6.88
2022-08-07T06:54:12.015Z,5.38
2022-08-07T06:56:14.742Z,5.22
2022-08-07T07:01:24.139Z,6.57
2022-08-07T07:07:00.576Z,7.32
2022-08-07T07:09:31.195Z,4.85
2022-08-07T07:12:08.178Z,5.78
2022-08-07T07:14:47.927Z,4.28
2022-08-07T07:24:11.034Z,4.03
2022-08-07T07:26:33.290Z,5.18
2022-08-07T07:29:39.792Z,4.25
2022-08-07T07:31:47.214Z,6.00
2022-08-07T07:39:51.999Z,4.65
2022-08-07T07:42:32.538Z,3.97
2022-08-07T07:45:01.800Z,1.92
2022-08-07T07:47:29.706Z,4.95
2022-08-07T07:50:33.522Z,2.30
2022-08-07T07:52:47.149Z,4.80
2022-08-07T07:57:58.347Z,2.78
2022-08-07T08:03:16.365Z,5.38
2022-08-07T08:08:34.309Z,5.28
2022-08-07T08:11:09.362Z,5.93
2022-08-07T08:16:39.381Z,2.55
2022-08-07T08:19:09.749Z,4.13
2022-08-07T08:22:12.773Z,3.80
2022-08-07T08:25:18.144Z,3.17
2022-08-07T08:27:56.475Z,3.65
2022-08-07T08:30:29.259Z,3.00
2022-08-07T08:32:59.089Z,4.25
2022-08-07T08:38:18.201Z,3.22
2022-08-07T08:43:59.100Z,2.72
2022-08-07T08:46:39.434Z,2.67
2022-08-07T08:49:17.650Z,2.67
2022-08-07T08:52:16.349Z,4.88
2022-08-07T08:54:49.682Z,2.55
2022-08-07T08:57:30.335Z,3.95
2022-08-07T09:00:08.865Z,3.80
2022-08-07T09:05:36.907Z,3.17
2022-08-07T09:08:29.961Z,3.40
2022-08-07T09:11:24.182Z,5.47
2022-08-07T09:14:13.521Z,2.65
2022-08-07T09:16:55.493Z,4.13
2022-08-07T09:19:53.525Z,2.47
2022-08-07T09:24:33.900Z,3.33
2022-08-07T09:25:53.986Z,5.70
2022-08-07T09:30:01.234Z,5.90
2022-08-07T09:40:34.094Z,3.42
2022-08-07T09:44:05.320Z,2.10
2022-08-07T09:47:52.329Z,2.75
2022-08-07T09:50:01.222Z,3.63
2022-08-07T09:52:39.324Z,3.08
2022-08-07T09:56:03.719Z,5.28
2022-08-07T09:58:50.938Z,1.95
2022-08-07T10:01:51.595Z,3.05
2022-08-07T10:04:32.503Z,3.85
2022-08-07T10:11:07.792Z,2.33
2022-08-07T10:14:00.180Z,3.38
2022-08-07T10:16:50.578Z,4.63
2022-08-07T10:19:38.811Z,2.95
2022-08-07T10:22:33.711Z,4.28
2022-08-07T10:25:42.262Z,3.10
2022-08-07T10:28:28.114Z,2.80
2022-08-07T10:31:11.462Z,3.63
2022-08-07T10:34:15.117Z,3.50
2022-08-07T10:36:50.884Z,3.50
2022-08-07T10:40:03.117Z,3.88
2022-08-07T10:42:59.110Z,2.22
2022-08-07T10:48:35.214Z,3.53
2022-08-07T10:51:01.845Z,1.48
2022-08-07T10:54:00.340Z,2.33
2022-08-07T10:57:05.989Z,4.28
2022-08-07T11:00:39.441Z,4.45
2022-08-07T11:03:11.304Z,2.90
2022-08-07T11:05:48.811Z,3.50
2022-08-07T11:08:47.703Z,2.53
2022-08-07T11:11:24.593Z,3.72
2022-08-07T11:14:57.249Z,2.45
2022-08-07T11:17:07.410Z,2.70
2022-08-07T11:19:57.518Z,4.30
2022-08-07T11:25:42.560Z,3.10
2022-08-07T11:28:25.726Z,2.75
2022-08-07T11:31:23.970Z,3.92
2022-08-07T11:40:12.010Z,3.55
2022-08-07T11:43:09.493Z,1.35
2022-08-07T11:46:11.320Z,1.67
2022-08-07T11:49:27.887Z,2.10
2022-08-07T11:52:05.702Z,1.77
2022-08-07T11:54:56.039Z,2.22
2022-08-07T11:58:00.135Z,3.28
2022-08-07T12:03:58.557Z,2.50
2022-08-07T12:09:23.457Z,1.50
2022-08-07T12:12:11.612Z,1.52
2022-08-07T12:14:55.391Z,2.00
2022-08-07T12:20:19.937Z,2.90
2022-08-07T12:24:05.736Z,3.35
2022-08-07T12:26:41.893Z,4.60
2022-08-07T12:29:37.168Z,1.67
2022-08-07T12:32:42.412Z,2.95
2022-08-07T12:35:12.168Z,3.88
2022-08-07T12:38:10.293Z,3.10
2022-08-07T12:40:47.216Z,3.08
2022-08-07T12:44:05.047Z,2.05
2022-08-07T12:46:26.200Z,2.80
2022-08-07T12:49:25.348Z,4.20
2022-08-07T12:52:14.226Z,4.18
2022-08-07T12:55:24.933Z,4.45
2022-08-07T12:58:10.464Z,4.70
2022-08-07T13:01:13.063Z,3.10
2022-08-07T13:04:02.104Z,4.47
2022-08-07T13:07:01.051Z,2.10
2022-08-07T13:10:20.869Z,4.35
2022-08-07T13:19:02.836Z,4.05
2022-08-07T13:21:51.072Z,2.40
2022-08-07T13:24:36.998Z,5.35
2022-08-07T13:27:20.563Z,2.90
2022-08-07T13:33:02.004Z,3.40
2022-08-07T13:35:59.581Z,4.35
2022-08-07T13:44:34.571Z,4.63
2022-08-07T13:52:40.833Z,5.18
2022-08-07T13:55:26.294Z,2.43
2022-08-07T13:58:27.933Z,3.72
2022-08-07T14:01:13.414Z,2.63
2022-08-07T14:04:07.311Z,4.07
2022-08-07T14:10:12.110Z,2.47
2022-08-07T14:12:11.299Z,3.03
2022-08-07T14:18:12.900Z,2.53
2022-08-07T14:23:59.578Z,2.45
2022-08-07T14:26:29.807Z,2.72
2022-08-07T14:31:56.244Z,2.70
2022-08-07T14:37:01.689Z,3.47
2022-08-07T14:40:16.616Z,2.03
2022-08-07T14:42:25.453Z,5.30
2022-08-07T14:44:59.968Z,4.28
2022-08-07T14:47:47.087Z,6.25
2022-08-07T14:55:55.344Z,5.30
2022-08-07T14:58:26.693Z,4.30
2022-08-07T15:00:59.493Z,4.63
2022-08-07T15:06:14.897Z,5.85
2022-08-07T15:11:53.618Z,4.35
2022-08-07T15:14:30.671Z,4.20
2022-08-07T15:17:00.563Z,3.60
2022-08-07T15:20:31.215Z,3.55
2022-08-07T15:28:30.697Z,5.18
2022-08-07T15:37:03.208Z,4.78
2022-08-07T15:39:17.710Z,3.53
2022-08-07T15:42:44.418Z,2.40
2022-08-07T15:48:00.459Z,3.90
2022-08-07T15:51:01.162Z,4.68
2022-08-07T15:53:48.578Z,3.72
2022-08-07T15:56:33.816Z,3.15
2022-08-07T15:59:16.433Z,3.63
2022-08-07T16:02:01.937Z,2.65
2022-08-07T16:04:41.687Z,6.38
2022-08-07T16:08:31.417Z,3.20
2022-08-07T16:10:17.177Z,3.10
2022-08-07T16:13:59.128Z,2.83
2022-08-07T16:16:43.324Z,3.25
2022-08-07T16:19:41.808Z,4.70
2022-08-07T16:22:54.849Z,5.63
2022-08-07T16:25:53.998Z,4.68
2022-08-07T16:30:08.571Z,5.68
2022-08-07T16:31:51.688Z,5.18
2022-08-07T16:38:03.477Z,6.47
2022-08-07T16:40:05.251Z,11.85
2022-08-07T16:43:01.198Z,3.22
2022-08-07T16:51:52.105Z,7.93
2022-08-07T16:54:32.786Z,4.70
2022-08-07T16:58:02.436Z,6.10
2022-08-07T17:00:29.881Z,5.13
2022-08-07T17:03:09.911Z,5.35
2022-08-07T17:09:09.192Z,4.40
2022-08-07T17:12:04.017Z,5.03
2022-08-07T17:14:56.895Z,3.80
2022-08-07T17:17:46.701Z,5.35
2022-08-07T17:20:23.411Z,8.07
2022-08-07T17:23:12.927Z,4.63
2022-08-07T17:32:03.229Z,6.13
2022-08-07T17:35:51.678Z,4.35
2022-08-07T17:38:11.505Z,3.72
2022-08-07T17:40:56.795Z,4.72
2022-08-07T17:43:39.649Z,4.50
2022-08-07T17:46:34.818Z,6.03
2022-08-07T17:49:15.126Z,4.07
2022-08-07T17:54:55.346Z,5.65
2022-08-07T17:57:56.586Z,3.58
2022-08-07T18:00:27.425Z,7.78
2022-08-07T18:03:09.359Z,9.35
2022-08-07T18:06:03.250Z,5.65
2022-08-07T18:09:01.321Z,6.13
2022-08-07T18:15:01.112Z,7.47
2022-08-07T18:18:45.172Z,4.90
2022-08-07T18:21:06.463Z,3.55
2022-08-07T18:23:42.585Z,5.20
2022-08-07T18:30:04.263Z,5.95
2022-08-07T18:35:57.399Z,3.70
2022-08-07T18:38:57.756Z,4.25
2022-08-07T18:44:45.940Z,5.85
2022-08-07T18:47:49.565Z,5.90
2022-08-07T18:50:47.016Z,6.80
2022-08-07T18:55:56.242Z,4.90
2022-08-07T19:02:36.577Z,5.07
2022-08-07T19:05:14.905Z,6.55
2022-08-07T19:13:23.854Z,5.75
2022-08-07T19:17:00.734Z,5.35
2022-08-07T19:19:13.118Z,6.57
2022-08-07T19:21:55.872Z,6.82
2022-08-07T19:24:43.587Z,6.47
2022-08-07T19:28:30.855Z,4.45
2022-08-07T19:30:58.578Z,5.60
2022-08-07T19:33:10.283Z,6.50
2022-08-07T19:35:56.245Z,5.45
2022-08-07T19:38:28.030Z,5.18
2022-08-07T19:46:29.371Z,8.77
2022-08-07T19:49:16.791Z,6.07
2022-08-07T19:51:51.701Z,10.15
2022-08-07T19:54:34.191Z,16.63
2022-08-07T19:58:01.617Z,5.30
2022-08-07T20:00:08.927Z,6.07
2022-08-07T20:08:22.899Z,11.07
2022-08-07T20:11:03.673Z,11.65
2022-08-07T20:13:43.772Z,6.75
2022-08-07T20:16:35.037Z,7.82
2022-08-07T20:21:48.432Z,6.32
2022-08-07T20:27:07.478Z,8.50
2022-08-07T20:29:47.631Z,5.55
2022-08-07T20:32:26.683Z,8.23
2022-08-07T20:35:08.936Z,9.48
2022-08-07T20:37:55.732Z,7.53
2022-08-07T20:40:32.250Z,7.20
2022-08-07T20:43:01.197Z,7.10
2022-08-07T20:46:28.443Z,7.95
2022-08-07T20:48:30.581Z,7.13
2022-08-07T20:51:02.620Z,5.50
2022-08-07T20:54:01.916Z,9.13
2022-08-07T20:56:33.545Z,10.98
2022-08-07T21:01:55.093Z,10.57
2022-08-07T21:04:28.041Z,7.13
2022-08-07T21:06:58.301Z,9.20
2022-08-07T21:09:51.962Z,9.10
2022-08-07T21:12:26.126Z,7.28
2022-08-07T21:15:02.248Z,8.65
2022-08-07T21:20:26.710Z,7.60
2022-08-07T21:28:49.759Z,7.05
2022-08-07T21:34:34.368Z,7.97
2022-08-07T21:37:58.308Z,7.35
2022-08-07T21:41:04.880Z,7.78
2022-08-07T21:44:03.732Z,11.32
2022-08-07T21:52:18.237Z,7.05
2022-08-07T21:55:10.939Z,9.20
2022-08-07T21:57:59.146Z,7.18
2022-08-07T22:00:26.631Z,10.50
2022-08-07T22:03:03.426Z,8.77
2022-08-07T22:05:45.710Z,8.80
2022-08-07T22:10:59.522Z,10.85
2022-08-07T22:13:51.866Z,8.82
2022-08-07T22:16:44.940Z,10.93
2022-08-07T22:22:27.464Z,10.43
2022-08-07T22:28:30.816Z,10.23
2022-08-07T22:36:38.493Z,8.35
2022-08-07T22:39:13.723Z,8.20
2022-08-07T22:44:33.528Z,8.82
2022-08-07T22:47:24.119Z,9.68
2022-08-07T22:49:58.774Z,10.07
2022-08-07T22:52:46.098Z,7.25
2022-08-07T22:55:23.051Z,8.98
2022-08-07T23:01:49.594Z,10.77
2022-08-07T23:04:56.927Z,8.10
2022-08-07T23:07:53.970Z,8.70
2022-08-07T23:10:42.067Z,8.40
2022-08-07T23:13:48.517Z,8.80
2022-08-07T23:17:15.520Z,8.98
2022-08-07T23:20:40.236Z,10.65
2022-08-07T23:24:06.782Z,9.18
2022-08-07T23:35:40.748Z,6.38
2022-08-07T23:41:21.136Z,8.02
2022-08-07T23:43:55.028Z,9.68
2022-08-07T23:46:37.463Z,7.65
2022-08-07T23:49:50.750Z,6.35
2022-08-07T23:55:52.932Z,7.45
2022-08-07T23:58:29.622Z,7.22
